Hyner, Pennsylvania
Current Conditions -  °F | °C
As of 2:55 PM on Saturday 25 Oct 2014 (Local Time) from KN38 Reporting Station
Overcast Overcast  
Wind Chill: 63°   Ceiling: 5500
Heat Index: 63°   Visibility: 10mi
Dew Point: 43°   Wind: 16mph
Humidity: 48%   Direction: 240°WSW
Pressure: 29.7"   Gusts: 30mph
Location:  41.33°N, 77.64°W
Report Text: KN38 251855Z AUTO 24014G26KT 10SM OVC055 17/06 A2970 RMK AO2
Loading
Personal Weather Stations






























Interactive Weather Map
Tropical Storm Tracking
New forecast layout! Learn more

10-Day Weather Forecast

Advertisements
Track Severe Weather on mobile